To NAV CANADA Home Page Login to a new session Search on AWWS site Feedback and Comments Disclaimer Vers la page française équivalente Tips FAQ What's new on the site To the Forecasts and Observations / NOTAM section To "File a Flight Plan" website Publications and other links Update of the User's profile FIC Telephone Numbers My Weather Data Folder Route Weather Data Regional Weather Data Local Weather Data To the Forecasts and Observations / NOTAM section
Request Generated 08/01/2015 at 09:42:59 UTC . Weather information available at that time is displayed.

METAR/TAF

DAWSON CITY/YT    

METAR CYDA 010900Z 00000KT 15SM SKC 08/07 A3001 RMK FU OBS FOR
MEDEVAC SLP173=
METAR CYDA 010800Z 00000KT 15SM SKC 10/09 A3000 RMK FU OBS FOR
MEDEVAC SLP168=
SPECI CYDA 010706Z CCA VRB02KT 15SM SKC 11/10 A2998 RMK FU STATION
OPEN FOR MEDEVAC SLP164=
LWIS CYDA 010700Z AUTO VRB02KT 11/10 A2998=

*** REMARK        : Forecast period has ended; this was the last TAF issued
*** REMARQUE : La période de prévision est échue; ceci était le dernier TAF qui a été émis
TAF CYDA 312338Z 0100/0103 VRB03KT P6SM BKN050 BKN090 TEMPO 0100/0103
VRB15G25KT 5SM TSRA BKN050CB
RMK NXT FCST WILL BE ISSUED AT 011445Z=
Your time UTC time
Weather data provided by Environment Canada and NAV CANADA